sensor_id;sensor_type;location;lat;lon;timestamp;temperature;humidity
53978;DHT22;39886;47.984;-1.586;2023-08-24T00:00:11;26.00;77.90
53978;DHT22;39886;47.984;-1.586;2023-08-24T00:02:36;26.00;77.90
53978;DHT22;39886;47.984;-1.586;2023-08-24T00:05:02;26.00;77.90
53978;DHT22;39886;47.984;-1.586;2023-08-24T00:07:28;25.90;77.90
53978;DHT22;39886;47.984;-1.586;2023-08-24T00:09:54;26.00;78.00
53978;DHT22;39886;47.984;-1.586;2023-08-24T00:12:19;25.90;77.90
53978;DHT22;39886;47.984;-1.586;2023-08-24T00:14:45;25.90;77.90
53978;DHT22;39886;47.984;-1.586;2023-08-24T00:17:10;26.00;78.00
53978;DHT22;39886;47.984;-1.586;2023-08-24T00:19:36;25.90;77.90
53978;DHT22;39886;47.984;-1.586;2023-08-24T00:22:01;25.90;78.00
53978;DHT22;39886;47.984;-1.586;2023-08-24T00:24:27;25.90;77.90
53978;DHT22;39886;47.984;-1.586;2023-08-24T00:26:53;25.90;78.00
53978;DHT22;39886;47.984;-1.586;2023-08-24T00:29:18;25.90;78.00
53978;DHT22;39886;47.984;-1.586;2023-08-24T00:31:44;25.90;78.00
53978;DHT22;39886;47.984;-1.586;2023-08-24T00:34:09;25.90;78.00
53978;DHT22;39886;47.984;-1.586;2023-08-24T00:36:35;25.90;78.00
53978;DHT22;39886;47.984;-1.586;2023-08-24T00:39:00;25.90;78.00
53978;DHT22;39886;47.984;-1.586;2023-08-24T00:41:26;25.90;78.00
53978;DHT22;39886;47.984;-1.586;2023-08-24T00:43:52;25.90;78.00
53978;DHT22;39886;47.984;-1.586;2023-08-24T00:46:18;25.90;78.00
53978;DHT22;39886;47.984;-1.586;2023-08-24T00:48:44;25.90;78.00
53978;DHT22;39886;47.984;-1.586;2023-08-24T00:51:10;25.90;78.00
53978;DHT22;39886;47.984;-1.586;2023-08-24T00:53:35;25.90;78.10
53978;DHT22;39886;47.984;-1.586;2023-08-24T00:56:01;25.90;78.10
53978;DHT22;39886;47.984;-1.586;2023-08-24T00:58:28;25.90;78.10
53978;DHT22;39886;47.984;-1.586;2023-08-24T01:00:54;25.90;78.80
53978;DHT22;39886;47.984;-1.586;2023-08-24T01:03:23;25.90;78.10
53978;DHT22;39886;47.984;-1.586;2023-08-24T01:05:49;25.90;78.10
53978;DHT22;39886;47.984;-1.586;2023-08-24T01:08:15;25.80;78.00
53978;DHT22;39886;47.984;-1.586;2023-08-24T01:10:44;25.90;78.10
53978;DHT22;39886;47.984;-1.586;2023-08-24T01:13:11;25.90;78.10
53978;DHT22;39886;47.984;-1.586;2023-08-24T01:15:47;25.90;78.10
53978;DHT22;39886;47.984;-1.586;2023-08-24T01:18:16;25.80;78.00
53978;DHT22;39886;47.984;-1.586;2023-08-24T01:20:44;25.80;78.70
53978;DHT22;39886;47.984;-1.586;2023-08-24T01:28:29;25.80;78.20
53978;DHT22;39886;47.984;-1.586;2023-08-24T01:30:55;25.80;78.10
53978;DHT22;39886;47.984;-1.586;2023-08-24T01:33:21;25.80;78.10
53978;DHT22;39886;47.984;-1.586;2023-08-24T01:35:46;25.80;78.20
53978;DHT22;39886;47.984;-1.586;2023-08-24T01:38:12;25.80;78.10
53978;DHT22;39886;47.984;-1.586;2023-08-24T01:43:16;25.80;78.20
53978;DHT22;39886;47.984;-1.586;2023-08-24T01:45:43;25.80;78.80
53978;DHT22;39886;47.984;-1.586;2023-08-24T01:48:10;25.70;78.10
53978;DHT22;39886;47.984;-1.586;2023-08-24T01:50:35;25.80;78.20
53978;DHT22;39886;47.984;-1.586;2023-08-24T01:53:01;25.80;78.20
53978;DHT22;39886;47.984;-1.586;2023-08-24T01:55:27;25.80;78.20
53978;DHT22;39886;47.984;-1.586;2023-08-24T01:57:54;25.70;78.10
53978;DHT22;39886;47.984;-1.586;2023-08-24T02:00:20;25.70;78.10
53978;DHT22;39886;47.984;-1.586;2023-08-24T02:02:45;25.70;78.20
53978;DHT22;39886;47.984;-1.586;2023-08-24T02:05:11;25.70;78.20
53978;DHT22;39886;47.984;-1.586;2023-08-24T02:07:38;25.70;78.20
53978;DHT22;39886;47.984;-1.586;2023-08-24T02:10:04;25.70;78.10
53978;DHT22;39886;47.984;-1.586;2023-08-24T02:12:30;25.70;78.20
53978;DHT22;39886;47.984;-1.586;2023-08-24T02:14:55;25.70;78.20
53978;DHT22;39886;47.984;-1.586;2023-08-24T02:17:21;25.70;78.20
53978;DHT22;39886;47.984;-1.586;2023-08-24T02:19:46;25.70;78.20
53978;DHT22;39886;47.984;-1.586;2023-08-24T02:22:12;25.70;78.20
53978;DHT22;39886;47.984;-1.586;2023-08-24T02:24:37;25.70;78.20
53978;DHT22;39886;47.984;-1.586;2023-08-24T02:27:04;25.70;78.20
53978;DHT22;39886;47.984;-1.586;2023-08-24T02:29:30;25.70;78.20
53978;DHT22;39886;47.984;-1.586;2023-08-24T02:31:55;25.70;78.20
53978;DHT22;39886;47.984;-1.586;2023-08-24T02:34:21;25.70;78.20
53978;DHT22;39886;47.984;-1.586;2023-08-24T02:36:47;25.70;78.20
53978;DHT22;39886;47.984;-1.586;2023-08-24T02:39:12;25.70;78.30
53978;DHT22;39886;47.984;-1.586;2023-08-24T02:41:38;25.70;78.30
53978;DHT22;39886;47.984;-1.586;2023-08-24T02:44:04;25.60;78.20
53978;DHT22;39886;47.984;-1.586;2023-08-24T02:46:29;25.70;78.30
53978;DHT22;39886;47.984;-1.586;2023-08-24T02:48:55;25.60;78.20
53978;DHT22;39886;47.984;-1.586;2023-08-24T02:51:21;25.70;78.30
53978;DHT22;39886;47.984;-1.586;2023-08-24T02:53:47;25.70;78.30
53978;DHT22;39886;47.984;-1.586;2023-08-24T02:56:12;25.70;78.30
53978;DHT22;39886;47.984;-1.586;2023-08-24T02:58:38;25.70;78.30
53978;DHT22;39886;47.984;-1.586;2023-08-24T03:01:04;25.60;78.20
53978;DHT22;39886;47.984;-1.586;2023-08-24T03:03:30;25.70;78.30
53978;DHT22;39886;47.984;-1.586;2023-08-24T03:05:56;25.60;78.20
53978;DHT22;39886;47.984;-1.586;2023-08-24T03:08:22;25.70;78.30
53978;DHT22;39886;47.984;-1.586;2023-08-24T03:10:48;25.60;78.30
53978;DHT22;39886;47.984;-1.586;2023-08-24T03:13:13;25.60;78.20
53978;DHT22;39886;47.984;-1.586;2023-08-24T03:15:39;25.60;78.30
53978;DHT22;39886;47.984;-1.586;2023-08-24T03:18:04;25.60;78.20
53978;DHT22;39886;47.984;-1.586;2023-08-24T03:20:30;25.60;78.20
53978;DHT22;39886;47.984;-1.586;2023-08-24T03:22:56;25.60;78.30
53978;DHT22;39886;47.984;-1.586;2023-08-24T03:25:22;25.60;78.30
53978;DHT22;39886;47.984;-1.586;2023-08-24T03:27:48;25.60;78.30
53978;DHT22;39886;47.984;-1.586;2023-08-24T03:30:14;25.60;78.30
53978;DHT22;39886;47.984;-1.586;2023-08-24T03:32:39;25.60;78.20
53978;DHT22;39886;47.984;-1.586;2023-08-24T03:35:05;25.60;78.30
53978;DHT22;39886;47.984;-1.586;2023-08-24T03:37:32;25.60;78.30
53978;DHT22;39886;47.984;-1.586;2023-08-24T03:39:57;25.60;78.30
53978;DHT22;39886;47.984;-1.586;2023-08-24T03:42:23;25.60;78.30
53978;DHT22;39886;47.984;-1.586;2023-08-24T03:44:49;25.60;78.30
53978;DHT22;39886;47.984;-1.586;2023-08-24T03:47:14;25.60;78.30
53978;DHT22;39886;47.984;-1.586;2023-08-24T03:49:41;25.60;78.30
53978;DHT22;39886;47.984;-1.586;2023-08-24T03:52:07;25.50;78.20
53978;DHT22;39886;47.984;-1.586;2023-08-24T03:54:33;25.50;78.20
53978;DHT22;39886;47.984;-1.586;2023-08-24T03:56:58;25.50;78.20
53978;DHT22;39886;47.984;-1.586;2023-08-24T03:59:24;25.50;78.30
53978;DHT22;39886;47.984;-1.586;2023-08-24T04:01:49;25.60;78.30
53978;DHT22;39886;47.984;-1.586;2023-08-24T04:04:15;25.50;78.30
53978;DHT22;39886;47.984;-1.586;2023-08-24T04:06:40;25.60;78.40
53978;DHT22;39886;47.984;-1.586;2023-08-24T04:09:06;25.50;78.30
53978;DHT22;39886;47.984;-1.586;2023-08-24T04:11:32;25.50;78.20
53978;DHT22;39886;47.984;-1.586;2023-08-24T04:13:57;25.50;78.30
53978;DHT22;39886;47.984;-1.586;2023-08-24T04:16:23;25.50;78.30
53978;DHT22;39886;47.984;-1.586;2023-08-24T04:18:48;25.50;78.30
53978;DHT22;39886;47.984;-1.586;2023-08-24T04:21:14;25.50;78.30
53978;DHT22;39886;47.984;-1.586;2023-08-24T04:23:39;25.50;78.40
53978;DHT22;39886;47.984;-1.586;2023-08-24T04:26:12;25.50;78.30
53978;DHT22;39886;47.984;-1.586;2023-08-24T04:28:38;25.50;78.30
53978;DHT22;39886;47.984;-1.586;2023-08-24T04:31:04;25.50;78.30
53978;DHT22;39886;47.984;-1.586;2023-08-24T04:33:29;25.50;78.30
53978;DHT22;39886;47.984;-1.586;2023-08-24T04:35:55;25.40;78.30
53978;DHT22;39886;47.984;-1.586;2023-08-24T04:38:21;25.40;78.30
53978;DHT22;39886;47.984;-1.586;2023-08-24T04:40:48;25.50;78.30
53978;DHT22;39886;47.984;-1.586;2023-08-24T04:43:13;25.50;78.40
53978;DHT22;39886;47.984;-1.586;2023-08-24T04:45:39;25.50;78.40
53978;DHT22;39886;47.984;-1.586;2023-08-24T04:48:04;25.40;78.30
53978;DHT22;39886;47.984;-1.586;2023-08-24T04:50:30;25.50;78.40
53978;DHT22;39886;47.984;-1.586;2023-08-24T04:52:56;25.40;78.30
53978;DHT22;39886;47.984;-1.586;2023-08-24T04:55:21;25.40;78.30
53978;DHT22;39886;47.984;-1.586;2023-08-24T04:57:47;25.40;78.30
53978;DHT22;39886;47.984;-1.586;2023-08-24T05:00:13;25.40;78.30
53978;DHT22;39886;47.984;-1.586;2023-08-24T05:02:41;25.40;78.30
53978;DHT22;39886;47.984;-1.586;2023-08-24T05:05:07;25.40;78.30
53978;DHT22;39886;47.984;-1.586;2023-08-24T05:07:36;25.40;78.30
53978;DHT22;39886;47.984;-1.586;2023-08-24T05:10:02;25.40;78.30
53978;DHT22;39886;47.984;-1.586;2023-08-24T05:12:28;25.40;78.30
53978;DHT22;39886;47.984;-1.586;2023-08-24T05:14:54;25.40;78.40
53978;DHT22;39886;47.984;-1.586;2023-08-24T05:17:20;25.30;78.20
53978;DHT22;39886;47.984;-1.586;2023-08-24T05:19:50;25.30;78.30
53978;DHT22;39886;47.984;-1.586;2023-08-24T05:22:16;25.40;78.30
53978;DHT22;39886;47.984;-1.586;2023-08-24T05:24:42;25.40;78.30
53978;DHT22;39886;47.984;-1.586;2023-08-24T05:27:07;25.30;78.30
53978;DHT22;39886;47.984;-1.586;2023-08-24T05:29:33;25.30;78.20
53978;DHT22;39886;47.984;-1.586;2023-08-24T05:31:58;25.40;78.40
53978;DHT22;39886;47.984;-1.586;2023-08-24T05:34:24;25.30;78.30
53978;DHT22;39886;47.984;-1.586;2023-08-24T05:36:50;25.30;78.30
53978;DHT22;39886;47.984;-1.586;2023-08-24T05:39:15;25.40;78.30
53978;DHT22;39886;47.984;-1.586;2023-08-24T05:41:41;25.40;78.30
53978;DHT22;39886;47.984;-1.586;2023-08-24T05:44:07;25.30;78.20
53978;DHT22;39886;47.984;-1.586;2023-08-24T05:46:32;25.30;78.30
53978;DHT22;39886;47.984;-1.586;2023-08-24T05:48:58;25.30;78.20
53978;DHT22;39886;47.984;-1.586;2023-08-24T05:51:25;25.30;78.20
53978;DHT22;39886;47.984;-1.586;2023-08-24T05:53:50;25.30;78.20
53978;DHT22;39886;47.984;-1.586;2023-08-24T05:56:23;25.30;78.30
53978;DHT22;39886;47.984;-1.586;2023-08-24T05:58:49;25.30;78.20
53978;DHT22;39886;47.984;-1.586;2023-08-24T06:01:14;25.30;78.20
53978;DHT22;39886;47.984;-1.586;2023-08-24T06:03:40;25.30;78.20
53978;DHT22;39886;47.984;-1.586;2023-08-24T06:06:06;25.30;78.20
53978;DHT22;39886;47.984;-1.586;2023-08-24T06:08:31;25.30;78.20
53978;DHT22;39886;47.984;-1.586;2023-08-24T06:10:57;25.30;78.20
53978;DHT22;39886;47.984;-1.586;2023-08-24T06:13:23;25.30;78.20
53978;DHT22;39886;47.984;-1.586;2023-08-24T06:15:48;25.30;78.20
53978;DHT22;39886;47.984;-1.586;2023-08-24T06:18:14;25.30;78.20
53978;DHT22;39886;47.984;-1.586;2023-08-24T06:20:39;25.30;78.20
53978;DHT22;39886;47.984;-1.586;2023-08-24T06:23:05;25.30;78.20
53978;DHT22;39886;47.984;-1.586;2023-08-24T06:25:33;25.40;78.20
53978;DHT22;39886;47.984;-1.586;2023-08-24T06:27:58;25.40;78.10
53978;DHT22;39886;47.984;-1.586;2023-08-24T06:30:27;25.40;78.00
53978;DHT22;39886;47.984;-1.586;2023-08-24T06:32:52;25.40;77.90
53978;DHT22;39886;47.984;-1.586;2023-08-24T06:35:18;25.40;78.00
53978;DHT22;39886;47.984;-1.586;2023-08-24T06:37:44;25.40;77.80
53978;DHT22;39886;47.984;-1.586;2023-08-24T06:40:10;25.40;77.80
53978;DHT22;39886;47.984;-1.586;2023-08-24T06:42:36;25.40;77.80
53978;DHT22;39886;47.984;-1.586;2023-08-24T06:45:01;25.40;77.80
53978;DHT22;39886;47.984;-1.586;2023-08-24T06:47:27;25.40;77.90
53978;DHT22;39886;47.984;-1.586;2023-08-24T06:49:52;25.40;77.90
53978;DHT22;39886;47.984;-1.586;2023-08-24T06:52:18;25.40;78.10
53978;DHT22;39886;47.984;-1.586;2023-08-24T06:54:44;25.40;78.00
53978;DHT22;39886;47.984;-1.586;2023-08-24T06:57:13;25.40;78.00
53978;DHT22;39886;47.984;-1.586;2023-08-24T06:59:39;25.40;78.00
53978;DHT22;39886;47.984;-1.586;2023-08-24T07:02:04;25.30;77.90
53978;DHT22;39886;47.984;-1.586;2023-08-24T07:04:30;25.40;78.10
53978;DHT22;39886;47.984;-1.586;2023-08-24T07:06:56;25.30;78.30
53978;DHT22;39886;47.984;-1.586;2023-08-24T07:09:22;25.40;78.20
53978;DHT22;39886;47.984;-1.586;2023-08-24T07:11:48;25.40;79.00
53978;DHT22;39886;47.984;-1.586;2023-08-24T07:14:14;25.40;78.00
53978;DHT22;39886;47.984;-1.586;2023-08-24T07:16:40;25.50;78.40
53978;DHT22;39886;47.984;-1.586;2023-08-24T07:19:05;25.40;78.50
53978;DHT22;39886;47.984;-1.586;2023-08-24T07:21:31;25.50;78.40
53978;DHT22;39886;47.984;-1.586;2023-08-24T07:23:56;25.50;78.50
53978;DHT22;39886;47.984;-1.586;2023-08-24T07:26:23;25.50;78.20
53978;DHT22;39886;47.984;-1.586;2023-08-24T07:28:50;25.50;78.20
53978;DHT22;39886;47.984;-1.586;2023-08-24T07:31:16;25.50;78.20
53978;DHT22;39886;47.984;-1.586;2023-08-24T07:33:41;25.50;77.90
53978;DHT22;39886;47.984;-1.586;2023-08-24T07:36:10;25.50;78.10
53978;DHT22;39886;47.984;-1.586;2023-08-24T07:38:36;25.50;78.40
53978;DHT22;39886;47.984;-1.586;2023-08-24T07:41:01;25.30;79.10
53978;DHT22;39886;47.984;-1.586;2023-08-24T07:43:27;25.20;79.40
53978;DHT22;39886;47.984;-1.586;2023-08-24T07:45:52;25.20;79.40
53978;DHT22;39886;47.984;-1.586;2023-08-24T07:48:26;25.30;79.60
53978;DHT22;39886;47.984;-1.586;2023-08-24T07:50:51;25.20;80.20
53978;DHT22;39886;47.984;-1.586;2023-08-24T07:53:17;25.20;80.10
53978;DHT22;39886;47.984;-1.586;2023-08-24T07:55:42;25.30;80.10
53978;DHT22;39886;47.984;-1.586;2023-08-24T07:58:08;25.20;80.30
53978;DHT22;39886;47.984;-1.586;2023-08-24T08:00:34;25.00;81.00
53978;DHT22;39886;47.984;-1.586;2023-08-24T08:03:00;25.10;80.90
53978;DHT22;39886;47.984;-1.586;2023-08-24T08:05:25;25.00;80.80
53978;DHT22;39886;47.984;-1.586;2023-08-24T08:07:52;25.00;81.20
53978;DHT22;39886;47.984;-1.586;2023-08-24T08:10:17;25.00;81.10
53978;DHT22;39886;47.984;-1.586;2023-08-24T08:12:43;24.90;81.40
53978;DHT22;39886;47.984;-1.586;2023-08-24T08:15:08;25.00;81.30
53978;DHT22;39886;47.984;-1.586;2023-08-24T08:17:34;24.90;81.30
53978;DHT22;39886;47.984;-1.586;2023-08-24T08:20:00;24.90;81.30
53978;DHT22;39886;47.984;-1.586;2023-08-24T08:22:25;25.00;81.10
53978;DHT22;39886;47.984;-1.586;2023-08-24T08:24:51;25.10;80.90
53978;DHT22;39886;47.984;-1.586;2023-08-24T08:27:19;25.20;80.70
53978;DHT22;39886;47.984;-1.586;2023-08-24T08:29:45;25.20;80.60
53978;DHT22;39886;47.984;-1.586;2023-08-24T08:32:11;25.20;80.40
53978;DHT22;39886;47.984;-1.586;2023-08-24T08:34:37;25.30;80.40
53978;DHT22;39886;47.984;-1.586;2023-08-24T08:37:03;25.30;80.50
53978;DHT22;39886;47.984;-1.586;2023-08-24T08:39:28;25.30;80.70
53978;DHT22;39886;47.984;-1.586;2023-08-24T08:41:54;25.20;80.60
53978;DHT22;39886;47.984;-1.586;2023-08-24T08:44:20;25.20;80.80
53978;DHT22;39886;47.984;-1.586;2023-08-24T08:46:47;25.10;81.10
53978;DHT22;39886;47.984;-1.586;2023-08-24T08:49:14;25.00;81.20
53978;DHT22;39886;47.984;-1.586;2023-08-24T08:51:41;25.00;81.40
53978;DHT22;39886;47.984;-1.586;2023-08-24T08:54:07;25.00;81.50
53978;DHT22;39886;47.984;-1.586;2023-08-24T08:56:32;25.00;81.90
53978;DHT22;39886;47.984;-1.586;2023-08-24T08:58:59;25.00;81.80
53978;DHT22;39886;47.984;-1.586;2023-08-24T09:01:26;25.00;82.30
53978;DHT22;39886;47.984;-1.586;2023-08-24T09:03:52;25.00;82.50
53978;DHT22;39886;47.984;-1.586;2023-08-24T09:06:18;24.90;82.50
53978;DHT22;39886;47.984;-1.586;2023-08-24T09:08:44;25.00;82.70
53978;DHT22;39886;47.984;-1.586;2023-08-24T09:11:10;24.90;82.60
53978;DHT22;39886;47.984;-1.586;2023-08-24T09:13:35;24.90;82.80
53978;DHT22;39886;47.984;-1.586;2023-08-24T09:16:10;25.00;82.90
53978;DHT22;39886;47.984;-1.586;2023-08-24T09:18:46;24.90;83.00
53978;DHT22;39886;47.984;-1.586;2023-08-24T09:21:13;24.80;83.20
53978;DHT22;39886;47.984;-1.586;2023-08-24T09:26:05;24.80;83.00
53978;DHT22;39886;47.984;-1.586;2023-08-24T09:28:31;24.80;83.60
53978;DHT22;39886;47.984;-1.586;2023-08-24T09:30:56;24.90;83.50
53978;DHT22;39886;47.984;-1.586;2023-08-24T09:33:25;24.90;83.60
53978;DHT22;39886;47.984;-1.586;2023-08-24T09:35:54;24.90;83.50
53978;DHT22;39886;47.984;-1.586;2023-08-24T09:38:23;24.90;83.50
53978;DHT22;39886;47.984;-1.586;2023-08-24T09:40:52;24.90;83.70
53978;DHT22;39886;47.984;-1.586;2023-08-24T09:43:18;24.90;83.80
53978;DHT22;39886;47.984;-1.586;2023-08-24T09:45:47;24.80;84.00
53978;DHT22;39886;47.984;-1.586;2023-08-24T09:48:13;24.80;84.20
53978;DHT22;39886;47.984;-1.586;2023-08-24T09:50:39;24.80;84.50
53978;DHT22;39886;47.984;-1.586;2023-08-24T09:53:05;24.90;84.30
53978;DHT22;39886;47.984;-1.586;2023-08-24T09:55:31;24.90;84.40
53978;DHT22;39886;47.984;-1.586;2023-08-24T09:57:59;24.90;84.20
53978;DHT22;39886;47.984;-1.586;2023-08-24T10:00:26;25.00;84.30
53978;DHT22;39886;47.984;-1.586;2023-08-24T10:02:52;25.00;84.10
53978;DHT22;39886;47.984;-1.586;2023-08-24T10:05:25;25.00;84.00
53978;DHT22;39886;47.984;-1.586;2023-08-24T10:07:55;25.00;84.00
53978;DHT22;39886;47.984;-1.586;2023-08-24T10:10:21;25.00;84.00
53978;DHT22;39886;47.984;-1.586;2023-08-24T10:12:50;25.00;84.00
53978;DHT22;39886;47.984;-1.586;2023-08-24T10:15:16;25.10;84.00
53978;DHT22;39886;47.984;-1.586;2023-08-24T10:17:42;25.10;83.80
53978;DHT22;39886;47.984;-1.586;2023-08-24T10:20:09;25.20;84.10
53978;DHT22;39886;47.984;-1.586;2023-08-24T10:22:35;25.10;84.20
53978;DHT22;39886;47.984;-1.586;2023-08-24T10:25:01;25.20;84.30
53978;DHT22;39886;47.984;-1.586;2023-08-24T10:27:27;25.20;84.00
53978;DHT22;39886;47.984;-1.586;2023-08-24T10:29:53;25.20;84.00
53978;DHT22;39886;47.984;-1.586;2023-08-24T10:32:19;25.20;83.90
53978;DHT22;39886;47.984;-1.586;2023-08-24T10:34:45;25.20;83.90
53978;DHT22;39886;47.984;-1.586;2023-08-24T10:37:11;25.30;83.80
53978;DHT22;39886;47.984;-1.586;2023-08-24T10:39:37;25.30;83.80
53978;DHT22;39886;47.984;-1.586;2023-08-24T10:42:06;25.30;83.80
53978;DHT22;39886;47.984;-1.586;2023-08-24T10:44:36;25.30;83.70
53978;DHT22;39886;47.984;-1.586;2023-08-24T10:47:21;25.30;83.70
53978;DHT22;39886;47.984;-1.586;2023-08-24T10:52:25;25.30;83.70
53978;DHT22;39886;47.984;-1.586;2023-08-24T10:54:52;25.20;83.60
53978;DHT22;39886;47.984;-1.586;2023-08-24T10:57:25;25.30;83.60
53978;DHT22;39886;47.984;-1.586;2023-08-24T11:02:50;25.30;83.50
53978;DHT22;39886;47.984;-1.586;2023-08-24T11:07:48;25.30;83.60
53978;DHT22;39886;47.984;-1.586;2023-08-24T11:10:14;25.30;83.70
53978;DHT22;39886;47.984;-1.586;2023-08-24T11:15:31;25.40;83.70
53978;DHT22;39886;47.984;-1.586;2023-08-24T11:20:45;25.40;83.60
53978;DHT22;39886;47.984;-1.586;2023-08-24T11:23:11;25.40;83.70
53978;DHT22;39886;47.984;-1.586;2023-08-24T11:25:37;25.50;83.50
53978;DHT22;39886;47.984;-1.586;2023-08-24T11:28:03;25.50;83.20
53978;DHT22;39886;47.984;-1.586;2023-08-24T11:30:30;25.50;83.20
53978;DHT22;39886;47.984;-1.586;2023-08-24T11:32:56;25.50;83.00
53978;DHT22;39886;47.984;-1.586;2023-08-24T11:35:21;25.50;83.20
53978;DHT22;39886;47.984;-1.586;2023-08-24T11:37:57;25.50;83.30
53978;DHT22;39886;47.984;-1.586;2023-08-24T11:40:23;25.50;83.00
53978;DHT22;39886;47.984;-1.586;2023-08-24T11:42:57;25.60;83.30
53978;DHT22;39886;47.984;-1.586;2023-08-24T11:45:22;25.60;83.00
53978;DHT22;39886;47.984;-1.586;2023-08-24T11:47:49;25.60;83.00
53978;DHT22;39886;47.984;-1.586;2023-08-24T11:50:16;25.70;83.00
53978;DHT22;39886;47.984;-1.586;2023-08-24T11:52:42;25.70;82.90
53978;DHT22;39886;47.984;-1.586;2023-08-24T11:55:08;25.80;83.00
53978;DHT22;39886;47.984;-1.586;2023-08-24T11:57:34;25.80;82.80
53978;DHT22;39886;47.984;-1.586;2023-08-24T12:00:00;25.80;82.80
53978;DHT22;39886;47.984;-1.586;2023-08-24T12:02:26;25.90;82.60
53978;DHT22;39886;47.984;-1.586;2023-08-24T12:04:51;25.90;81.70
53978;DHT22;39886;47.984;-1.586;2023-08-24T12:07:17;25.90;81.30
53978;DHT22;39886;47.984;-1.586;2023-08-24T12:09:44;25.90;81.80
53978;DHT22;39886;47.984;-1.586;2023-08-24T12:12:13;26.00;81.20
53978;DHT22;39886;47.984;-1.586;2023-08-24T12:14:42;26.10;81.20
53978;DHT22;39886;47.984;-1.586;2023-08-24T12:17:10;26.10;80.40
53978;DHT22;39886;47.984;-1.586;2023-08-24T12:19:36;26.10;80.40
53978;DHT22;39886;47.984;-1.586;2023-08-24T12:22:03;26.20;80.20
53978;DHT22;39886;47.984;-1.586;2023-08-24T12:24:28;26.20;80.20
53978;DHT22;39886;47.984;-1.586;2023-08-24T12:29:28;26.30;79.60
53978;DHT22;39886;47.984;-1.586;2023-08-24T12:31:57;26.30;80.10
53978;DHT22;39886;47.984;-1.586;2023-08-24T12:34:23;26.30;79.80
53978;DHT22;39886;47.984;-1.586;2023-08-24T12:36:49;26.40;80.00
53978;DHT22;39886;47.984;-1.586;2023-08-24T12:39:15;26.40;79.80
53978;DHT22;39886;47.984;-1.586;2023-08-24T12:41:41;26.50;79.90
53978;DHT22;39886;47.984;-1.586;2023-08-24T12:44:07;26.60;79.70
53978;DHT22;39886;47.984;-1.586;2023-08-24T12:46:34;26.60;78.80
53978;DHT22;39886;47.984;-1.586;2023-08-24T12:49:02;26.70;77.90
53978;DHT22;39886;47.984;-1.586;2023-08-24T12:51:28;26.70;77.30
53978;DHT22;39886;47.984;-1.586;2023-08-24T12:53:53;26.80;77.10
53978;DHT22;39886;47.984;-1.586;2023-08-24T12:56:19;26.80;78.00
53978;DHT22;39886;47.984;-1.586;2023-08-24T12:58:45;26.90;77.00
53978;DHT22;39886;47.984;-1.586;2023-08-24T13:01:11;26.90;77.30
53978;DHT22;39886;47.984;-1.586;2023-08-24T13:03:37;26.90;76.90
53978;DHT22;39886;47.984;-1.586;2023-08-24T13:06:05;27.00;77.30
53978;DHT22;39886;47.984;-1.586;2023-08-24T13:08:31;27.00;77.30
53978;DHT22;39886;47.984;-1.586;2023-08-24T13:10:57;27.00;77.40
53978;DHT22;39886;47.984;-1.586;2023-08-24T13:13:22;27.10;77.60
53978;DHT22;39886;47.984;-1.586;2023-08-24T13:15:49;27.10;77.40
53978;DHT22;39886;47.984;-1.586;2023-08-24T13:18:16;27.20;77.10
53978;DHT22;39886;47.984;-1.586;2023-08-24T13:20:42;27.20;77.90
53978;DHT22;39886;47.984;-1.586;2023-08-24T13:23:08;27.20;77.90
53978;DHT22;39886;47.984;-1.586;2023-08-24T13:25:34;27.30;76.80
53978;DHT22;39886;47.984;-1.586;2023-08-24T13:27:59;27.30;76.50
53978;DHT22;39886;47.984;-1.586;2023-08-24T13:30:25;27.40;77.00
53978;DHT22;39886;47.984;-1.586;2023-08-24T13:32:52;27.40;76.70
53978;DHT22;39886;47.984;-1.586;2023-08-24T13:35:18;27.40;76.50
53978;DHT22;39886;47.984;-1.586;2023-08-24T13:37:43;27.50;76.20
53978;DHT22;39886;47.984;-1.586;2023-08-24T13:40:10;27.70;76.10
53978;DHT22;39886;47.984;-1.586;2023-08-24T13:42:35;28.20;74.20
53978;DHT22;39886;47.984;-1.586;2023-08-24T13:45:01;28.40;72.20
53978;DHT22;39886;47.984;-1.586;2023-08-24T13:47:28;28.40;71.80
53978;DHT22;39886;47.984;-1.586;2023-08-24T13:49:54;28.30;72.00
53978;DHT22;39886;47.984;-1.586;2023-08-24T13:52:20;28.20;72.00
53978;DHT22;39886;47.984;-1.586;2023-08-24T13:54:46;28.10;72.30
53978;DHT22;39886;47.984;-1.586;2023-08-24T13:57:11;28.10;72.00
53978;DHT22;39886;47.984;-1.586;2023-08-24T13:59:37;28.20;71.60
53978;DHT22;39886;47.984;-1.586;2023-08-24T14:02:05;28.80;70.20
53978;DHT22;39886;47.984;-1.586;2023-08-24T14:04:31;28.70;70.30
53978;DHT22;39886;47.984;-1.586;2023-08-24T14:06:57;28.60;70.70
53978;DHT22;39886;47.984;-1.586;2023-08-24T14:09:22;28.60;71.10
53978;DHT22;39886;47.984;-1.586;2023-08-24T14:11:48;28.60;70.60
53978;DHT22;39886;47.984;-1.586;2023-08-24T14:14:14;28.60;70.90
53978;DHT22;39886;47.984;-1.586;2023-08-24T14:16:40;28.60;71.40
53978;DHT22;39886;47.984;-1.586;2023-08-24T14:19:06;28.60;71.70
53978;DHT22;39886;47.984;-1.586;2023-08-24T14:21:32;28.60;71.70
53978;DHT22;39886;47.984;-1.586;2023-08-24T14:23:58;28.60;71.50
53978;DHT22;39886;47.984;-1.586;2023-08-24T14:26:24;28.50;70.80
53978;DHT22;39886;47.984;-1.586;2023-08-24T14:28:58;28.50;70.30
53978;DHT22;39886;47.984;-1.586;2023-08-24T14:31:26;28.60;70.90
53978;DHT22;39886;47.984;-1.586;2023-08-24T14:33:52;28.60;70.10
53978;DHT22;39886;47.984;-1.586;2023-08-24T14:36:18;28.60;70.20
53978;DHT22;39886;47.984;-1.586;2023-08-24T14:38:46;28.60;69.10
53978;DHT22;39886;47.984;-1.586;2023-08-24T14:41:13;28.60;70.10
53978;DHT22;39886;47.984;-1.586;2023-08-24T14:43:39;28.60;69.60
53978;DHT22;39886;47.984;-1.586;2023-08-24T14:46:05;28.60;69.40
53978;DHT22;39886;47.984;-1.586;2023-08-24T14:48:31;28.60;68.90
53978;DHT22;39886;47.984;-1.586;2023-08-24T14:50:57;28.60;69.10
53978;DHT22;39886;47.984;-1.586;2023-08-24T14:53:24;28.60;69.00
53978;DHT22;39886;47.984;-1.586;2023-08-24T14:55:50;28.60;69.00
53978;DHT22;39886;47.984;-1.586;2023-08-24T14:58:16;28.70;69.20
53978;DHT22;39886;47.984;-1.586;2023-08-24T15:00:41;28.70;68.90
53978;DHT22;39886;47.984;-1.586;2023-08-24T15:03:07;28.80;70.10
53978;DHT22;39886;47.984;-1.586;2023-08-24T15:05:43;28.80;68.80
53978;DHT22;39886;47.984;-1.586;2023-08-24T15:08:10;28.90;67.70
53978;DHT22;39886;47.984;-1.586;2023-08-24T15:10:37;28.90;67.00
53978;DHT22;39886;47.984;-1.586;2023-08-24T15:13:03;28.90;67.20
53978;DHT22;39886;47.984;-1.586;2023-08-24T15:15:29;28.90;66.50
53978;DHT22;39886;47.984;-1.586;2023-08-24T15:17:55;28.90;66.20
53978;DHT22;39886;47.984;-1.586;2023-08-24T15:20:20;28.90;66.00
53978;DHT22;39886;47.984;-1.586;2023-08-24T15:22:46;28.80;66.10
53978;DHT22;39886;47.984;-1.586;2023-08-24T15:25:12;28.90;66.30
53978;DHT22;39886;47.984;-1.586;2023-08-24T15:27:37;28.90;66.00
53978;DHT22;39886;47.984;-1.586;2023-08-24T15:30:04;28.90;66.00
53978;DHT22;39886;47.984;-1.586;2023-08-24T15:32:32;28.90;65.50
53978;DHT22;39886;47.984;-1.586;2023-08-24T15:34:58;28.90;65.50